< < Back
Terminal Aerodrome Forecast


Current Version              Previous Versions:   1  2  3  4  5  6  7  8  9  

Terminal Aerodrome Forecast

793
FTUS42 KCHS 192300
TAFCHS
TAF
KCHS 192320Z 2000/2024 25009G14KT P6SM FEW035 SCT120 BKN250
     FM200300 26006KT P6SM FEW025 SCT120
     FM201400 29007KT P6SM SCT040=

Latest METAR

555
SAUS80 KWBC 201000
MTRCHS
METAR KCHS 200956Z 27005KT 10SM FEW010 24/22 A2992 RMK AO2 SLP131
T02390222


USA.gov is the U.S. government's official web portal to all federal, state and local government web resources and services.